createdAt,value
2019-01-31T00:01:52.985Z,113.57
2019-01-31T00:04:27.208Z,112.43
2019-01-31T00:07:04.799Z,115.97
2019-01-31T00:09:39.319Z,118.67
2019-01-31T00:12:16.670Z,134.23
2019-01-31T00:14:51.333Z,123.67
2019-01-31T00:17:37.945Z,138.20
2019-01-31T00:20:24.849Z,139.37
2019-01-31T00:23:31.191Z,147.50
2019-01-31T00:26:08.813Z,146.37
2019-01-31T00:28:40.381Z,145.20
2019-01-31T00:31:24.148Z,147.27
2019-01-31T00:34:29.363Z,145.03
2019-01-31T00:37:22.010Z,161.83
2019-01-31T00:40:02.469Z,179.47
2019-01-31T00:42:36.990Z,179.97
2019-01-31T00:45:16.970Z,194.90
2019-01-31T00:47:48.545Z,181.50
2019-01-31T00:50:41.047Z,181.67
2019-01-31T00:53:21.183Z,171.07
2019-01-31T00:56:04.950Z,175.23
2019-01-31T00:58:45.500Z,175.00
2019-01-31T01:01:38.046Z,160.27
2019-01-31T01:04:24.620Z,151.70
2019-01-31T01:07:12.810Z,143.80
2019-01-31T01:09:53.356Z,150.30
2019-01-31T01:12:49.385Z,183.90
2019-01-31T01:15:23.902Z,205.47
2019-01-31T01:18:10.062Z,192.93
2019-01-31T01:21:02.781Z,176.30
2019-01-31T01:23:34.327Z,173.23
2019-01-31T01:26:27.062Z,177.80
2019-01-31T01:29:15.052Z,178.83
2019-01-31T01:32:02.855Z,166.37
2019-01-31T01:35:01.163Z,166.93
2019-01-31T01:37:40.605Z,177.07
2019-01-31T01:40:35.028Z,164.03
2019-01-31T01:43:12.419Z,149.50
2019-01-31T01:46:00.676Z,148.87
2019-01-31T01:48:32.268Z,157.53
2019-01-31T01:51:03.930Z,156.07
2019-01-31T01:53:38.345Z,152.40
2019-01-31T01:56:18.685Z,152.77
2019-01-31T01:59:11.509Z,185.53
2019-01-31T02:01:43.368Z,180.83
2019-01-31T02:04:20.761Z,181.77
2019-01-31T02:07:07.706Z,189.33
2019-01-31T02:10:02.062Z,190.50
2019-01-31T02:12:42.834Z,180.57
2019-01-31T02:15:29.539Z,178.50
2019-01-31T02:18:21.709Z,175.23
2019-01-31T02:21:22.122Z,176.27
2019-01-31T02:24:05.211Z,172.03
2019-01-31T02:27:11.847Z,155.13
2019-01-31T02:30:02.454Z,153.97
2019-01-31T02:32:39.765Z,158.50
2019-01-31T02:35:20.568Z,174.33
2019-01-31T02:37:57.893Z,169.00
2019-01-31T02:40:55.082Z,167.33
2019-01-31T02:43:29.357Z,165.67
2019-01-31T02:46:09.462Z,163.87
2019-01-31T02:48:49.927Z,160.47
2019-01-31T02:54:24.669Z,161.47
2019-01-31T02:57:11.699Z,158.20
2019-01-31T03:00:05.823Z,152.97
2019-01-31T03:02:46.278Z,147.40
2019-01-31T03:05:32.819Z,148.33
2019-01-31T03:08:12.881Z,145.73
2019-01-31T03:10:47.548Z,147.57
2019-01-31T03:13:40.395Z,145.63
2019-01-31T03:16:27.415Z,133.70
2019-01-31T03:19:04.612Z,126.57
2019-01-31T03:21:42.394Z,116.47
2019-01-31T03:24:31.377Z,119.10
2019-01-31T03:27:18.241Z,118.93
2019-01-31T03:29:58.527Z,104.17
2019-01-31T03:32:33.356Z,97.67
2019-01-31T03:35:32.186Z,93.00
2019-01-31T03:38:15.317Z,88.87
2019-01-31T03:40:52.658Z,86.43
2019-01-31T03:43:35.848Z,90.37
2019-01-31T03:46:19.258Z,83.87
2019-01-31T03:48:51.183Z,78.23
2019-01-31T03:51:42.979Z,73.87
2019-01-31T03:54:49.588Z,75.13
2019-01-31T03:57:42.127Z,68.93
2019-01-31T04:00:19.936Z,68.00
2019-01-31T04:02:54.646Z,66.57
2019-01-31T04:05:26.218Z,63.37
2019-01-31T04:07:54.792Z,61.63
2019-01-31T04:10:23.373Z,59.13
2019-01-31T04:12:51.678Z,60.43
2019-01-31T04:15:20.029Z,59.23
2019-01-31T04:17:48.617Z,57.43
2019-01-31T04:20:16.915Z,56.07
2019-01-31T04:22:45.217Z,54.07
2019-01-31T04:25:13.955Z,53.83
2019-01-31T04:27:42.547Z,52.23
2019-01-31T04:30:13.748Z,51.23
2019-01-31T04:32:42.050Z,50.77
2019-01-31T04:35:10.494Z,48.43
2019-01-31T04:37:38.783Z,49.80
2019-01-31T04:40:09.300Z,49.50
2019-01-31T04:42:37.585Z,46.33
2019-01-31T04:45:08.223Z,46.10
2019-01-31T04:47:36.531Z,46.17
2019-01-31T04:50:08.098Z,44.17
2019-01-31T04:52:36.676Z,42.73
2019-01-31T04:55:06.146Z,42.80
2019-01-31T04:57:34.449Z,42.00
2019-01-31T05:00:03.002Z,39.93
2019-01-31T05:02:31.293Z,41.40
2019-01-31T05:04:59.902Z,41.10
2019-01-31T05:07:28.202Z,38.67
2019-01-31T05:09:56.864Z,37.80
2019-01-31T05:12:25.439Z,37.80
2019-01-31T05:14:53.718Z,36.57
2019-01-31T05:17:22.446Z,35.53
2019-01-31T05:19:50.723Z,37.13
2019-01-31T05:22:19.398Z,35.63
2019-01-31T05:24:47.950Z,34.83
2019-01-31T05:27:16.234Z,33.00
2019-01-31T05:29:44.531Z,34.47
2019-01-31T05:32:12.833Z,33.07
2019-01-31T05:34:41.130Z,33.10
2019-01-31T05:37:09.434Z,32.30
2019-01-31T05:39:37.714Z,31.47
2019-01-31T05:42:06.302Z,31.60
2019-01-31T05:44:34.577Z,30.20
2019-01-31T05:47:02.995Z,30.53
2019-01-31T05:49:31.289Z,28.90
2019-01-31T05:51:59.914Z,28.63
2019-01-31T05:54:28.499Z,29.13
2019-01-31T05:56:56.856Z,28.13
2019-01-31T05:59:25.461Z,26.47
2019-01-31T06:01:54.057Z,25.93
2019-01-31T06:04:22.630Z,27.77
2019-01-31T06:06:52.998Z,26.70
2019-01-31T06:09:21.333Z,25.30
2019-01-31T06:11:49.619Z,26.00
2019-01-31T06:14:17.925Z,26.33
2019-01-31T06:16:46.573Z,25.30
2019-01-31T06:19:15.407Z,25.53
2019-01-31T06:21:43.708Z,24.50
2019-01-31T06:24:12.343Z,22.50
2019-01-31T06:26:41.012Z,22.33
2019-01-31T06:29:09.593Z,22.33
2019-01-31T06:31:38.178Z,21.97
2019-01-31T06:34:06.771Z,20.57
2019-01-31T06:36:35.341Z,20.77
2019-01-31T06:39:05.309Z,20.30
2019-01-31T06:41:33.670Z,19.80
2019-01-31T06:44:02.054Z,19.43
2019-01-31T06:46:30.474Z,19.20
2019-01-31T06:48:58.923Z,19.10
2019-01-31T06:51:27.210Z,19.10
2019-01-31T06:53:55.838Z,18.40
2019-01-31T06:56:24.422Z,18.37
2019-01-31T06:58:53.011Z,17.43
2019-01-31T07:01:21.599Z,17.47
2019-01-31T07:03:50.170Z,17.10
2019-01-31T07:06:18.487Z,17.90
2019-01-31T07:08:46.769Z,17.13
2019-01-31T07:11:15.073Z,16.70
2019-01-31T07:13:43.387Z,16.80
2019-01-31T07:16:11.667Z,15.83
2019-01-31T07:18:40.241Z,15.00
2019-01-31T07:21:08.566Z,15.90
2019-01-31T07:23:36.858Z,15.17
2019-01-31T07:26:05.479Z,14.97
2019-01-31T07:28:34.091Z,14.23
2019-01-31T07:31:02.381Z,15.30
2019-01-31T07:33:31.027Z,14.13
2019-01-31T07:35:59.320Z,13.90
2019-01-31T07:38:27.622Z,13.60
2019-01-31T07:40:56.166Z,14.17
2019-01-31T07:43:24.486Z,14.67
2019-01-31T07:45:52.870Z,13.83
2019-01-31T07:48:21.506Z,13.03
2019-01-31T07:50:50.087Z,13.83
2019-01-31T07:53:18.696Z,12.67
2019-01-31T07:55:46.989Z,12.83
2019-01-31T07:58:15.274Z,12.63
2019-01-31T08:00:43.916Z,12.27
2019-01-31T08:03:12.218Z,13.00
2019-01-31T08:05:40.598Z,12.60
2019-01-31T08:08:08.900Z,11.97
2019-01-31T08:10:39.790Z,13.33
2019-01-31T08:13:08.073Z,14.03
2019-01-31T08:15:36.646Z,28.87
2019-01-31T08:18:05.299Z,54.80
2019-01-31T08:20:33.589Z,55.10
2019-01-31T08:23:01.940Z,57.30
2019-01-31T08:25:30.237Z,54.70
2019-01-31T08:27:58.847Z,61.47
2019-01-31T08:30:41.747Z,70.87
2019-01-31T08:33:10.034Z,66.57
2019-01-31T08:35:38.320Z,73.57
2019-01-31T08:38:06.627Z,69.00
2019-01-31T08:40:35.187Z,68.70
2019-01-31T08:43:03.497Z,68.80
2019-01-31T08:45:32.157Z,69.97
2019-01-31T08:48:00.702Z,67.17
2019-01-31T08:50:30.256Z,67.87
2019-01-31T08:52:58.555Z,71.83
2019-01-31T08:55:27.710Z,76.73
2019-01-31T08:57:56.019Z,88.17
2019-01-31T09:00:31.727Z,85.13
2019-01-31T09:03:00.029Z,81.03
2019-01-31T09:05:28.409Z,79.40
2019-01-31T09:07:56.764Z,76.53
2019-01-31T09:10:37.369Z,72.53
2019-01-31T09:13:07.706Z,74.37
2019-01-31T09:15:36.350Z,74.27
2019-01-31T09:18:05.186Z,71.13
2019-01-31T09:20:42.947Z,70.17
2019-01-31T09:23:32.428Z,66.67
2019-01-31T09:26:18.920Z,67.33
2019-01-31T09:28:53.242Z,81.70
2019-01-31T09:31:27.691Z,87.23
2019-01-31T09:33:59.721Z,82.37
2019-01-31T09:36:46.631Z,82.87
2019-01-31T09:39:29.546Z,81.67
2019-01-31T09:42:26.384Z,83.30
2019-01-31T09:45:05.090Z,80.77
2019-01-31T09:47:48.581Z,79.13
2019-01-31T09:50:42.979Z,79.73
2019-01-31T09:53:48.076Z,77.07
2019-01-31T09:56:30.963Z,75.67
2019-01-31T09:59:11.306Z,75.10
2019-01-31T10:01:59.473Z,73.63
2019-01-31T10:04:45.800Z,89.60
2019-01-31T10:07:17.399Z,95.37
2019-01-31T10:10:10.848Z,91.77
2019-01-31T10:13:00.562Z,88.13
2019-01-31T10:15:35.638Z,84.23
2019-01-31T10:18:30.001Z,85.00
2019-01-31T10:21:04.447Z,77.80
2019-01-31T10:23:45.392Z,76.30
2019-01-31T10:26:16.999Z,77.70
2019-01-31T10:29:02.095Z,76.47
2019-01-31T10:31:39.399Z,73.07
2019-01-31T10:34:13.670Z,74.00
2019-01-31T10:37:04.329Z,73.93
2019-01-31T10:39:41.892Z,75.83
2019-01-31T10:42:13.470Z,78.27
2019-01-31T10:44:51.308Z,75.77
2019-01-31T10:47:37.907Z,75.47
2019-01-31T10:50:39.874Z,69.73
2019-01-31T10:53:23.721Z,89.53
2019-01-31T10:56:03.825Z,89.73
2019-01-31T10:59:01.434Z,90.20
2019-01-31T11:01:39.026Z,94.80
2019-01-31T11:04:32.742Z,99.77
2019-01-31T11:07:12.785Z,109.10
2019-01-31T11:10:03.667Z,94.57
2019-01-31T11:13:00.239Z,89.87
2019-01-31T11:15:26.939Z,93.17
2019-01-31T11:18:16.420Z,93.97
2019-01-31T11:21:00.156Z,114.67
2019-01-31T11:23:37.052Z,108.67
2019-01-31T11:26:25.035Z,102.93
2019-01-31T11:29:22.387Z,98.63
2019-01-31T11:32:13.762Z,99.30
2019-01-31T11:35:06.811Z,98.60
2019-01-31T11:37:44.320Z,93.53
2019-01-31T11:40:16.069Z,90.07
2019-01-31T11:42:56.514Z,90.33
2019-01-31T11:45:43.251Z,89.03
2019-01-31T11:48:14.803Z,84.53
2019-01-31T11:50:55.045Z,85.47
2019-01-31T11:53:29.355Z,83.37
2019-01-31T11:56:22.615Z,81.93
2019-01-31T11:58:50.493Z,79.33
2019-01-31T12:01:18.825Z,94.30
2019-01-31T12:03:47.434Z,82.03
2019-01-31T12:06:16.236Z,80.20
2019-01-31T12:08:44.558Z,77.70
2019-01-31T12:11:13.196Z,81.43
2019-01-31T12:13:41.526Z,79.77
2019-01-31T12:16:09.806Z,77.80
2019-01-31T12:18:38.433Z,79.07
2019-01-31T12:21:06.746Z,78.63
2019-01-31T12:23:35.311Z,77.00
2019-01-31T12:26:03.882Z,76.07
2019-01-31T12:28:32.199Z,75.87
2019-01-31T12:31:00.522Z,72.97
2019-01-31T12:33:30.962Z,76.00
2019-01-31T12:35:59.571Z,75.03
2019-01-31T12:38:36.584Z,72.13
2019-01-31T12:40:57.935Z,70.40
2019-01-31T12:43:34.820Z,69.77
2019-01-31T12:45:56.267Z,69.63
2019-01-31T12:48:24.567Z,65.47
2019-01-31T12:50:52.962Z,65.77
2019-01-31T12:53:21.260Z,72.40
2019-01-31T12:55:49.582Z,106.40
2019-01-31T12:58:17.870Z,115.77
2019-01-31T13:00:46.514Z,110.90
2019-01-31T13:03:15.093Z,104.50
2019-01-31T13:05:43.675Z,102.50
2019-01-31T13:08:12.362Z,99.70
2019-01-31T13:10:40.810Z,101.00
2019-01-31T13:13:09.533Z,97.33
2019-01-31T13:15:38.084Z,93.03
2019-01-31T13:18:06.694Z,92.17
2019-01-31T13:20:34.998Z,89.83
2019-01-31T13:23:03.291Z,87.70
2019-01-31T13:25:31.593Z,88.33
2019-01-31T13:27:59.900Z,85.13
2019-01-31T13:30:28.490Z,83.40
2019-01-31T13:32:57.248Z,82.20
2019-01-31T13:35:26.077Z,82.47
2019-01-31T13:37:54.444Z,81.73
2019-01-31T13:40:25.003Z,79.93
2019-01-31T13:42:53.474Z,78.27
2019-01-31T13:45:25.316Z,80.03
2019-01-31T13:47:53.631Z,75.97
2019-01-31T13:50:21.947Z,77.83
2019-01-31T13:52:50.257Z,82.30
2019-01-31T13:55:24.581Z,112.33
2019-01-31T13:57:52.882Z,99.33
2019-01-31T14:00:25.023Z,103.27
2019-01-31T14:02:53.902Z,104.37
2019-01-31T14:05:22.998Z,98.47
2019-01-31T14:07:51.557Z,105.23
2019-01-31T14:10:24.400Z,105.10
2019-01-31T14:12:52.786Z,100.27
2019-01-31T14:15:33.499Z,91.90
2019-01-31T14:17:56.747Z,92.50
2019-01-31T14:20:26.799Z,94.47
2019-01-31T14:22:55.392Z,90.53
2019-01-31T14:25:24.055Z,88.73
2019-01-31T14:27:52.655Z,87.07
2019-01-31T14:30:29.083Z,81.53
2019-01-31T14:32:58.042Z,84.97
2019-01-31T14:35:26.887Z,85.43
2019-01-31T14:37:55.181Z,80.27
2019-01-31T14:40:23.854Z,84.97
2019-01-31T14:42:52.163Z,79.90
2019-01-31T14:45:20.820Z,79.90
2019-01-31T14:47:49.130Z,73.27
2019-01-31T14:50:20.638Z,73.07
2019-01-31T14:52:49.239Z,70.37
2019-01-31T14:55:17.523Z,67.07
2019-01-31T14:57:45.817Z,66.07
2019-01-31T15:00:20.068Z,64.57
2019-01-31T15:02:48.358Z,67.57
2019-01-31T15:05:17.273Z,64.30
2019-01-31T15:07:45.818Z,64.53
2019-01-31T15:10:20.272Z,65.23
2019-01-31T15:12:48.814Z,62.97
2019-01-31T15:15:18.227Z,60.77
2019-01-31T15:17:46.577Z,60.63
2019-01-31T15:20:39.202Z,60.63
2019-01-31T15:23:07.688Z,58.37
2019-01-31T15:25:36.254Z,57.67
2019-01-31T15:28:04.943Z,71.97
2019-01-31T15:30:35.675Z,85.57
2019-01-31T15:33:07.098Z,89.33
2019-01-31T15:35:35.626Z,81.03
2019-01-31T15:38:04.291Z,78.40
2019-01-31T15:40:35.579Z,80.03
2019-01-31T15:43:04.439Z,71.60
2019-01-31T15:45:32.714Z,69.73
2019-01-31T15:48:01.283Z,69.50
2019-01-31T15:50:29.567Z,68.70
2019-01-31T15:52:57.879Z,64.33
2019-01-31T15:55:27.568Z,62.10
2019-01-31T15:57:56.296Z,63.13
2019-01-31T16:00:38.071Z,61.47
2019-01-31T16:03:08.465Z,61.13
2019-01-31T16:05:37.038Z,59.60
2019-01-31T16:08:06.031Z,67.17
2019-01-31T16:10:34.339Z,81.10
2019-01-31T16:13:02.646Z,73.43
2019-01-31T16:15:31.430Z,79.97
2019-01-31T16:17:59.869Z,76.27
2019-01-31T16:20:28.551Z,71.10
2019-01-31T16:22:57.230Z,72.73
2019-01-31T16:25:26.064Z,72.27
2019-01-31T16:27:54.512Z,70.97
2019-01-31T16:30:23.145Z,69.33
2019-01-31T16:32:51.697Z,68.70
2019-01-31T16:35:20.556Z,67.47
2019-01-31T16:37:50.334Z,66.63
2019-01-31T16:40:18.984Z,67.73
2019-01-31T16:42:47.336Z,65.87
2019-01-31T16:45:16.761Z,61.20
2019-01-31T16:47:45.062Z,61.40
2019-01-31T16:50:18.191Z,60.67
2019-01-31T16:52:46.754Z,67.73
2019-01-31T16:55:20.825Z,82.03
2019-01-31T16:57:49.495Z,123.03
2019-01-31T17:00:26.501Z,104.33
2019-01-31T17:02:55.173Z,103.30
2019-01-31T17:05:26.091Z,99.33
2019-01-31T17:07:56.581Z,96.50
2019-01-31T17:10:24.954Z,94.73
2019-01-31T17:12:53.573Z,95.47
2019-01-31T17:15:21.883Z,97.43
2019-01-31T17:17:50.193Z,126.27
2019-01-31T17:20:30.656Z,120.47
2019-01-31T17:22:58.962Z,117.23
2019-01-31T17:25:27.559Z,117.73
2019-01-31T17:27:55.856Z,115.90
2019-01-31T17:30:25.932Z,112.53
2019-01-31T17:32:54.549Z,110.83
2019-01-31T17:35:22.864Z,109.13
2019-01-31T17:37:51.186Z,110.10
2019-01-31T17:40:28.610Z,109.50
2019-01-31T17:42:57.168Z,106.70
2019-01-31T17:45:30.490Z,105.40
2019-01-31T17:47:55.870Z,107.20
2019-01-31T17:50:24.453Z,103.63
2019-01-31T17:52:53.130Z,101.83
2019-01-31T17:55:23.618Z,101.23
2019-01-31T17:57:51.918Z,96.80
2019-01-31T18:00:39.379Z,100.10
2019-01-31T18:03:08.177Z,102.10
2019-01-31T18:05:36.950Z,113.57
2019-01-31T18:08:09.015Z,118.30
2019-01-31T18:10:36.365Z,124.63
2019-01-31T18:13:05.701Z,132.37
2019-01-31T18:15:41.740Z,133.00
2019-01-31T18:18:04.994Z,142.40
2019-01-31T18:20:33.321Z,140.57
2019-01-31T18:23:01.959Z,135.47
2019-01-31T18:25:30.526Z,142.80
2019-01-31T18:27:59.113Z,148.03
2019-01-31T18:30:35.918Z,146.77
2019-01-31T18:33:04.590Z,150.00
2019-01-31T18:35:33.272Z,140.53
2019-01-31T18:38:01.845Z,141.77
2019-01-31T18:40:34.940Z,136.80
2019-01-31T18:43:03.530Z,132.93
2019-01-31T18:45:34.162Z,129.40
2019-01-31T18:48:02.727Z,125.60
2019-01-31T18:50:37.506Z,127.87
2019-01-31T18:53:06.272Z,117.40
2019-01-31T18:55:34.945Z,117.03
2019-01-31T18:58:03.251Z,111.43
2019-01-31T19:00:43.270Z,114.87
2019-01-31T19:03:11.857Z,112.93
2019-01-31T19:05:40.432Z,107.83
2019-01-31T19:08:09.116Z,104.10
2019-01-31T19:10:43.459Z,105.60
2019-01-31T19:13:08.443Z,101.40
2019-01-31T19:15:36.860Z,99.23
2019-01-31T19:18:06.398Z,101.20
2019-01-31T19:20:35.527Z,99.40
2019-01-31T19:23:05.485Z,96.33
2019-01-31T19:25:34.131Z,95.00
2019-01-31T19:28:02.418Z,96.27
2019-01-31T19:30:36.031Z,99.40
2019-01-31T19:33:05.191Z,96.07
2019-01-31T19:35:33.570Z,99.17
2019-01-31T19:38:02.667Z,100.60
2019-01-31T19:40:36.237Z,98.93
2019-01-31T19:43:04.854Z,98.57
2019-01-31T19:45:36.045Z,98.07
2019-01-31T19:48:05.381Z,91.30
2019-01-31T19:50:34.476Z,93.37
2019-01-31T19:53:03.288Z,100.73
2019-01-31T19:55:31.877Z,125.63
2019-01-31T19:58:00.431Z,120.23
2019-01-31T20:00:28.749Z,119.90
2019-01-31T20:02:57.052Z,116.67
2019-01-31T20:05:25.824Z,115.53
2019-01-31T20:07:54.486Z,116.30
2019-01-31T20:10:30.909Z,119.90
2019-01-31T20:12:59.455Z,117.47
2019-01-31T20:15:28.528Z,117.60
2019-01-31T20:17:56.838Z,120.60
2019-01-31T20:20:27.631Z,115.40
2019-01-31T20:22:56.800Z,112.83
2019-01-31T20:25:26.614Z,110.30
2019-01-31T20:27:55.233Z,139.97
2019-01-31T20:30:31.976Z,141.40
2019-01-31T20:33:01.122Z,130.53
2019-01-31T20:35:29.797Z,124.20
2019-01-31T20:37:58.099Z,123.30
2019-01-31T20:40:35.285Z,119.57
2019-01-31T20:43:04.543Z,115.97
2019-01-31T20:45:33.152Z,117.07
2019-01-31T20:48:01.733Z,112.33
2019-01-31T20:50:32.747Z,112.63
2019-01-31T20:53:01.056Z,110.63
2019-01-31T20:55:29.388Z,108.30
2019-01-31T20:57:59.204Z,105.27
2019-01-31T21:00:35.794Z,103.73
2019-01-31T21:03:06.161Z,100.60
2019-01-31T21:05:34.828Z,98.53
2019-01-31T21:08:03.188Z,101.40
2019-01-31T21:10:31.771Z,95.13
2019-01-31T21:13:00.246Z,96.30
2019-01-31T21:15:28.613Z,93.37
2019-01-31T21:17:57.258Z,94.27
2019-01-31T21:20:26.745Z,93.27
2019-01-31T21:22:55.629Z,93.30
2019-01-31T21:25:24.241Z,89.60
2019-01-31T21:27:52.580Z,88.93
2019-01-31T21:30:27.442Z,89.83
2019-01-31T21:32:55.843Z,97.33
2019-01-31T21:35:24.625Z,107.53
2019-01-31T21:37:53.263Z,114.97
2019-01-31T21:40:23.248Z,136.23
2019-01-31T21:42:51.548Z,162.17
2019-01-31T21:45:24.459Z,161.17
2019-01-31T21:47:52.787Z,147.70
2019-01-31T21:50:29.083Z,132.57
2019-01-31T21:52:57.662Z,131.70
2019-01-31T21:55:26.245Z,130.27
2019-01-31T21:57:54.556Z,125.03
2019-01-31T22:00:28.794Z,121.43
2019-01-31T22:02:57.113Z,120.00
2019-01-31T22:05:25.485Z,120.03
2019-01-31T22:07:54.092Z,118.67
2019-01-31T22:10:22.413Z,118.00
2019-01-31T22:12:50.799Z,118.83
2019-01-31T22:15:24.533Z,115.97
2019-01-31T22:17:52.840Z,115.50
2019-01-31T22:20:21.134Z,115.57
2019-01-31T22:22:49.434Z,112.17
2019-01-31T22:25:19.462Z,106.80
2019-01-31T22:27:47.765Z,107.30
2019-01-31T22:30:25.139Z,102.90
2019-01-31T22:32:53.519Z,100.50
2019-01-31T22:35:22.126Z,102.07
2019-01-31T22:37:50.709Z,101.17
2019-01-31T22:40:19.291Z,107.93
2019-01-31T22:42:47.600Z,121.97
2019-01-31T22:45:20.892Z,114.30
2019-01-31T22:47:49.199Z,139.63
2019-01-31T22:50:19.583Z,127.47
2019-01-31T22:52:47.895Z,120.47
2019-01-31T22:55:23.198Z,120.87
2019-01-31T22:57:51.620Z,116.27
2019-01-31T23:00:30.812Z,127.80
2019-01-31T23:02:59.470Z,128.63
2019-01-31T23:05:28.374Z,125.80
2019-01-31T23:07:56.959Z,124.03
2019-01-31T23:10:25.323Z,122.37
2019-01-31T23:12:54.352Z,120.10
2019-01-31T23:15:23.117Z,116.30
2019-01-31T23:17:51.674Z,114.03
2019-01-31T23:20:20.483Z,115.10
2019-01-31T23:22:48.929Z,114.77
2019-01-31T23:25:17.377Z,114.40
2019-01-31T23:27:46.152Z,128.87
2019-01-31T23:30:16.029Z,138.97
2019-01-31T23:32:44.691Z,132.23
2019-01-31T23:35:13.435Z,127.83
2019-01-31T23:37:41.719Z,123.93
2019-01-31T23:40:14.420Z,107.43
2019-01-31T23:42:43.271Z,116.43
2019-01-31T23:45:14.833Z,110.60
2019-01-31T23:47:48.957Z,106.17
2019-01-31T23:50:13.326Z,120.87
2019-01-31T23:52:41.682Z,101.67
2019-01-31T23:55:15.000Z,95.83
2019-01-31T23:57:43.578Z,90.43
